Acra, New York
Current Conditions -  °F | °C
As of 3:51 PM on Thursday 18 Dec 2014 (Local Time) from KALB Reporting Station
Overcast Overcast  
Wind Chill: 28°   Ceiling: 3200
Heat Index: 36°   Visibility: 10mi
Dew Point: 25°   Wind: 13mph
Humidity: 64%   Direction: 290°WNW
Pressure: 29.93"   Gusts: 23mph
Location:  42.31°N, 74.05°W
Report Text: KALB 182051Z 29011G20KT 10SM SCT028 OVC032 02/M04 A2993 RMK AO2 SLP137 SCT V BKN BINOVC T00221039 53008
Loading
Personal Weather Stations






























Interactive Weather Map New forecast layout! Learn more

10-Day Weather Forecast

Advertisements
Track Severe Weather on mobile